Time;durP1;ratioP1;P1;durP2;ratioP2;P2;SDS_P1;SDS_P2;PMS_P1;PMS_P2;Temp;Humidity;BMP_temperature;BMP_pressure;BME280_temperature;BME280_humidity;BME280_pressure;Samples;Min_cycle;Max_cycle;Signal;HPM_P1;HPM_P2
2024/01/17 00:00:01;;;;;;;15.70;10.40;;;;;;;-5.10;100.00;96869.00;1224893;75;2917519;-66
2024/01/17 00:02:36;;;;;;;14.35;10.25;;;;;;;-5.19;100.00;96866.03;1224542;75;2924547;-65
2024/01/17 00:05:12;;;;;;;12.00;8.40;;;;;;;-5.04;100.00;96867.44;1225243;75;2920075;-67
2024/01/17 00:07:44;;;;;;;9.70;7.30;;;;;;;-5.08;100.00;96853.34;1224241;75;2923042;-66
2024/01/17 00:10:17;;;;;;;10.20;7.25;;;;;;;-5.16;100.00;96849.97;1225643;75;2922818;-66
2024/01/17 00:12:50;;;;;;;8.60;6.30;;;;;;;-5.12;100.00;96839.28;1225180;75;2926378;-66
2024/01/17 00:15:23;;;;;;;8.95;6.05;;;;;;;-5.16;100.00;96838.56;1224713;75;2927076;-61
2024/01/17 00:17:58;;;;;;;8.35;6.30;;;;;;;-5.29;100.00;96837.47;1224557;75;2920990;-65
2024/01/17 00:20:32;;;;;;;9.85;6.50;;;;;;;-5.31;100.00;96832.56;1224666;75;2916163;-64
2024/01/17 00:23:05;;;;;;;10.30;6.25;;;;;;;-5.27;100.00;96830.59;1224680;75;2921254;-64
2024/01/17 00:25:38;;;;;;;12.90;7.50;;;;;;;-5.31;100.00;96843.22;1225409;75;2923352;-64
2024/01/17 00:28:10;;;;;;;12.65;8.80;;;;;;;-5.49;100.00;96845.97;1225068;75;2914554;-65
2024/01/17 00:30:43;;;;;;;14.30;9.60;;;;;;;-5.54;100.00;96859.72;1224739;75;2917147;-68
2024/01/17 00:33:19;;;;;;;14.70;9.80;;;;;;;-5.31;100.00;96856.56;1224933;75;2918427;-67
2024/01/17 00:35:51;;;;;;;11.95;9.05;;;;;;;-5.35;100.00;96845.91;1224655;75;2924251;-63
2024/01/17 00:38:24;;;;;;;11.40;7.90;;;;;;;-5.20;100.00;96837.81;1223688;75;2924248;-66
2024/01/17 00:40:57;;;;;;;10.15;7.60;;;;;;;-5.27;100.00;96848.53;1225416;75;2920210;-66
2024/01/17 00:43:30;;;;;;;9.45;6.70;;;;;;;-5.25;100.00;96836.31;1224851;75;2922363;-64
2024/01/17 00:46:03;;;;;;;9.00;6.50;;;;;;;-5.30;100.00;96838.63;1224184;75;2924766;-66
2024/01/17 00:48:38;;;;;;;7.00;5.30;;;;;;;-5.31;100.00;96837.88;1222878;75;2916883;-64
2024/01/17 00:51:11;;;;;;;8.05;5.95;;;;;;;-5.39;100.00;96831.84;1225474;75;2879748;-63
2024/01/17 00:53:44;;;;;;;10.35;7.70;;;;;;;-5.38;100.00;96837.94;1224544;75;2926406;-66
2024/01/17 00:56:17;;;;;;;11.20;7.00;;;;;;;-5.53;100.00;96842.59;1224274;83;2929147;-65
2024/01/17 00:58:49;;;;;;;13.50;7.10;;;;;;;-5.67;100.00;96837.31;1224851;75;2925381;-67
2024/01/17 01:01:23;;;;;;;11.55;8.15;;;;;;;-5.71;100.00;96837.31;1224939;75;2916063;-66
2024/01/17 01:03:58;;;;;;;10.85;8.20;;;;;;;-5.58;100.00;96840.28;1225045;75;2917200;-67
2024/01/17 01:06:31;;;;;;;11.60;8.70;;;;;;;-5.66;100.00;96834.25;1224764;75;2917053;-64
2024/01/17 01:09:04;;;;;;;11.40;7.45;;;;;;;-5.58;100.00;96840.28;1224593;75;2928675;-64
2024/01/17 01:11:38;;;;;;;10.25;6.75;;;;;;;-5.62;100.00;96834.25;1224390;75;2919866;-64
2024/01/17 01:14:10;;;;;;;9.30;6.60;;;;;;;-5.65;100.00;96829.66;1224721;75;2926749;-66
2024/01/17 01:16:43;;;;;;;8.55;6.10;;;;;;;-5.60;100.00;96826.63;1224510;75;2922933;-66
2024/01/17 01:19:19;;;;;;;10.70;7.05;;;;;;;-5.93;100.00;96825.25;1224879;75;2929442;-64
2024/01/17 01:21:52;;;;;;;10.20;7.50;;;;;;;-6.00;100.00;96818.06;1225073;75;2917153;-65
2024/01/17 01:24:25;;;;;;;12.55;7.80;;;;;;;-6.03;100.00;96810.84;1223950;75;2921712;-67
2024/01/17 01:26:58;;;;;;;8.50;6.60;;;;;;;-5.85;100.00;96806.16;1225117;75;2919906;-65
2024/01/17 01:29:31;;;;;;;8.65;6.20;;;;;;;-5.85;100.00;96800.81;1224652;75;2934722;-65
2024/01/17 01:32:04;;;;;;;9.15;6.30;;;;;;;-5.88;100.00;96793.59;1224252;75;2926770;-63
2024/01/17 01:34:39;;;;;;;8.45;5.75;;;;;;;-5.82;100.00;96788.63;1224509;75;2922977;-64
2024/01/17 01:37:12;;;;;;;7.65;5.40;;;;;;;-5.84;100.00;96790.94;1223344;75;2918428;-64
2024/01/17 01:39:45;;;;;;;8.05;5.95;;;;;;;-5.89;100.00;96784.09;1224110;75;2927761;-65
2024/01/17 01:42:18;;;;;;;10.00;5.80;;;;;;;-5.94;100.00;96781.09;1224716;75;2913826;-64
2024/01/17 01:44:51;;;;;;;8.40;5.55;;;;;;;-5.97;100.00;96776.56;1223965;75;2921157;-67
2024/01/17 01:47:25;;;;;;;10.00;5.80;;;;;;;-5.87;100.00;96771.16;1224053;75;2923856;-65
2024/01/17 01:50:00;;;;;;;7.35;5.60;;;;;;;-5.86;100.00;96759.34;1224133;75;2922780;-64
2024/01/17 01:52:34;;;;;;;8.50;5.65;;;;;;;-5.88;100.00;96756.28;1223227;75;2923312;-65
2024/01/17 01:55:08;;;;;;;8.45;6.50;;;;;;;-6.00;100.00;96746.09;1224720;75;2926404;-66
2024/01/17 01:57:50;;;;;;;10.30;6.90;;;;;;;-6.14;100.00;96759.50;1223825;75;2942502;-66
2024/01/17 02:00:24;;;;;;;15.25;9.15;;;;;;;-6.22;100.00;96759.53;1223920;75;2923338;-64
2024/01/17 02:02:57;;;;;;;15.70;10.25;;;;;;;-6.17;100.00;96762.94;1224336;75;2920061;-63
2024/01/17 02:05:33;;;;;;;15.05;10.00;;;;;;;-6.15;100.00;96758.75;1224632;75;2921698;-64
2024/01/17 02:08:06;;;;;;;13.80;9.20;;;;;;;-6.16;100.00;96756.44;1224177;75;2918647;-60
2024/01/17 02:10:40;;;;;;;13.05;9.30;;;;;;;-5.99;100.00;96752.94;1224619;75;2914463;-66
2024/01/17 02:13:13;;;;;;;11.80;7.65;;;;;;;-5.92;100.00;96752.88;1224308;75;2923236;-65
2024/01/17 02:15:46;;;;;;;9.70;7.25;;;;;;;-5.87;100.00;96749.06;1224692;75;2921050;-66
2024/01/17 02:18:19;;;;;;;9.85;6.55;;;;;;;-5.95;100.00;96742.28;1225247;75;2917034;-64
2024/01/17 02:20:54;;;;;;;10.30;6.75;;;;;;;-6.02;100.00;96743.81;1224793;75;2918958;-63
2024/01/17 02:23:28;;;;;;;10.05;7.20;;;;;;;-6.04;100.00;96732.03;1224182;75;2924164;-65
2024/01/17 02:26:04;;;;;;;14.75;9.75;;;;;;;-6.30;100.00;96742.06;1224575;75;2916606;-64
2024/01/17 02:28:37;;;;;;;13.25;9.30;;;;;;;-6.12;100.00;96752.63;1224834;75;2922055;-64
2024/01/17 02:31:10;;;;;;;16.25;11.55;;;;;;;-6.23;100.00;96749.25;1225225;75;2915994;-66
2024/01/17 02:33:44;;;;;;;15.60;10.60;;;;;;;-5.95;100.00;96737.72;1224580;75;2923325;-64
2024/01/17 02:36:17;;;;;;;16.55;10.05;;;;;;;-5.89;100.00;96728.13;1224533;75;2923341;-66
2024/01/17 02:38:49;;;;;;;13.10;8.55;;;;;;;-5.80;100.00;96733.03;1223841;75;2921225;-64
2024/01/17 02:41:25;;;;;;;13.05;8.70;;;;;;;-5.89;100.00;96728.13;1223851;75;2921774;-65
2024/01/17 02:43:58;;;;;;;12.10;8.10;;;;;;;-5.84;100.00;96729.63;1225762;75;2925700;-65
2024/01/17 02:46:32;;;;;;;12.45;7.20;;;;;;;-5.75;100.00;96737.19;1225273;75;2924338;-65
2024/01/17 02:49:05;;;;;;;8.80;6.60;;;;;;;-5.85;100.00;96736.09;1224816;75;2918762;-64
2024/01/17 02:51:37;;;;;;;10.70;6.65;;;;;;;-5.78;100.00;96731.47;1225293;75;2910502;-65
2024/01/17 02:54:10;;;;;;;9.10;6.15;;;;;;;-5.69;100.00;96743.63;1225545;75;2912392;-64
2024/01/17 02:56:46;;;;;;;9.45;6.15;;;;;;;-5.63;100.00;96752.72;1224556;75;2918388;-66
2024/01/17 02:59:19;;;;;;;11.30;7.85;;;;;;;-5.83;100.00;96750.56;1224692;75;2926008;-65
2024/01/17 03:01:53;;;;;;;15.55;10.70;;;;;;;-5.95;100.00;96744.94;1225264;75;2915249;-66
2024/01/17 03:04:26;;;;;;;14.35;8.95;;;;;;;-5.65;100.00;96737.13;1225561;75;2915978;-65
2024/01/17 03:06:59;;;;;;;13.50;8.60;;;;;;;-5.85;100.00;96717.44;1224336;75;2922831;-65
2024/01/17 03:09:31;;;;;;;10.30;7.50;;;;;;;-5.66;100.00;96710.84;1223658;75;2925710;-64
2024/01/17 03:12:08;;;;;;;9.75;7.05;;;;;;;-5.55;100.00;96708.88;1224154;75;2926870;-67
2024/01/17 03:14:41;;;;;;;8.10;6.10;;;;;;;-5.63;100.00;96696.75;1224227;75;2923463;-65
2024/01/17 03:17:14;;;;;;;7.35;5.90;;;;;;;-5.73;100.00;96714.31;1224409;75;2924312;-64
2024/01/17 03:19:48;;;;;;;9.25;6.60;;;;;;;-5.78;100.00;96698.75;1224684;75;2919130;-65
2024/01/17 03:22:20;;;;;;;11.10;7.40;;;;;;;-5.61;100.00;96708.53;1224156;75;2925923;-63
2024/01/17 03:24:53;;;;;;;12.75;8.15;;;;;;;-5.75;100.00;96705.19;1223739;75;2923440;-66
2024/01/17 03:27:29;;;;;;;16.30;11.50;;;;;;;-5.77;100.00;96705.63;1224200;75;2924192;-65
2024/01/17 03:30:02;;;;;;;14.45;9.95;;;;;;;-5.63;100.00;96692.19;1224271;75;2918631;-67
2024/01/17 03:32:34;;;;;;;18.65;12.40;;;;;;;-5.75;100.00;96689.97;1224331;75;2917809;-65
2024/01/17 03:35:08;;;;;;;20.65;13.35;;;;;;;-5.69;100.00;96679.66;1224374;75;2924458;-65
2024/01/17 03:37:41;;;;;;;16.00;11.45;;;;;;;-5.37;100.00;96664.16;1224352;75;2926410;-65
2024/01/17 03:40:15;;;;;;;14.20;9.45;;;;;;;-5.23;100.00;96673.94;1223039;75;2934355;-65
2024/01/17 03:42:50;;;;;;;13.50;9.55;;;;;;;-5.40;100.00;96675.63;1224777;75;2932379;-65
2024/01/17 03:45:23;;;;;;;10.90;8.15;;;;;;;-5.27;100.00;96667.88;1223942;75;2922922;-64
2024/01/17 03:47:56;;;;;;;11.95;8.65;;;;;;;-5.16;100.00;96660.53;1224506;75;2926492;-63
2024/01/17 03:50:29;;;;;;;11.50;7.90;;;;;;;-5.23;100.00;96678.53;1224958;75;2923320;-64
2024/01/17 03:53:02;;;;;;;9.95;7.20;;;;;;;-5.09;100.00;96685.66;1221587;75;2976761;-65
2024/01/17 03:55:35;;;;;;;12.30;7.20;;;;;;;-5.16;100.00;96681.13;1221566;75;2925517;-65
2024/01/17 03:58:11;;;;;;;8.80;6.55;;;;;;;-5.16;100.00;96662.47;1225034;75;2923522;-65
2024/01/17 04:00:43;;;;;;;10.35;7.75;;;;;;;-5.12;100.00;96655.19;1223599;75;2926657;-66
2024/01/17 04:03:16;;;;;;;15.85;11.65;;;;;;;-5.30;100.00;96649.25;1224698;75;2915770;-65
2024/01/17 04:05:49;;;;;;;20.20;14.40;;;;;;;-5.39;100.00;96636.38;1223781;75;2920535;-63
2024/01/17 04:08:22;;;;;;;23.15;15.85;;;;;;;-5.43;100.00;96635.66;1223963;75;2923984;-65
2024/01/17 04:10:55;;;;;;;22.35;15.65;;;;;;;-5.40;100.00;96626.84;1223250;75;2934514;-66
2024/01/17 04:13:30;;;;;;;19.55;14.25;;;;;;;-5.26;100.00;96620.63;1224844;75;2917481;-67
2024/01/17 04:16:03;;;;;;;16.60;11.80;;;;;;;-4.92;100.00;96618.75;1223098;75;2932068;-65
2024/01/17 04:18:36;;;;;;;15.75;10.50;;;;;;;-4.94;100.00;96615.72;1223870;75;2919268;-64
2024/01/17 04:21:09;;;;;;;11.25;8.40;;;;;;;-4.86;100.00;96604.94;1224076;75;2918684;-63
2024/01/17 04:23:42;;;;;;;11.20;7.90;;;;;;;-4.86;100.00;96600.38;1223695;75;2920014;-66
2024/01/17 04:26:23;;;;;;;11.35;8.35;;;;;;;-4.88;100.00;96613.38;1223294;75;2921745;-67
2024/01/17 04:28:59;;;;;;;10.40;7.70;;;;;;;-4.82;100.00;96608.34;1224256;75;2923000;-65
2024/01/17 04:31:33;;;;;;;10.80;7.15;;;;;;;-4.76;100.00;96596.09;1223415;75;2920701;-65
2024/01/17 04:34:05;;;;;;;8.10;6.30;;;;;;;-4.74;100.00;96596.41;1223473;75;2922194;-62
2024/01/17 04:36:38;;;;;;;8.90;6.30;;;;;;;-4.68;100.00;96597.50;1224055;75;2920089;-66
2024/01/17 04:39:11;;;;;;;9.05;6.20;;;;;;;-4.68;100.00;96600.16;1223647;75;2921770;-66
2024/01/17 04:41:44;;;;;;;7.65;5.85;;;;;;;-4.64;100.00;96594.78;1223168;75;2921681;-67
2024/01/17 04:44:19;;;;;;;8.95;5.75;;;;;;;-4.67;100.00;96588.31;1223415;75;2924722;-65
2024/01/17 04:46:52;;;;;;;8.70;5.90;;;;;;;-4.88;100.00;96597.38;1223512;75;2928417;-64
2024/01/17 04:49:27;;;;;;;8.65;6.25;;;;;;;-4.86;100.00;96594.28;1223248;75;2929566;-66
2024/01/17 04:52:00;;;;;;;9.95;6.75;;;;;;;-4.72;100.00;96589.53;1224091;75;2928382;-65
2024/01/17 04:54:33;;;;;;;10.90;7.00;;;;;;;-4.59;100.00;96583.66;1222926;75;2927246;-66
2024/01/17 04:57:06;;;;;;;8.80;6.85;;;;;;;-4.81;100.00;96593.84;1223660;75;2927468;-65
2024/01/17 04:59:42;;;;;;;13.20;9.60;;;;;;;-4.76;100.00;96599.50;1224453;75;2919789;-67
2024/01/17 05:02:15;;;;;;;10.50;8.00;;;;;;;-4.58;100.00;96609.19;1223610;75;2925319;-64
2024/01/17 05:04:48;;;;;;;10.95;7.25;;;;;;;-4.52;100.00;96594.25;1224333;75;2920795;-67
2024/01/17 05:07:20;;;;;;;8.60;6.15;;;;;;;-4.48;100.00;96586.94;1223457;75;2921187;-64
2024/01/17 05:09:53;;;;;;;9.45;6.50;;;;;;;-4.55;100.00;96595.78;1223413;75;2919526;-66
2024/01/17 05:12:26;;;;;;;9.40;6.65;;;;;;;-4.58;100.00;96583.25;1223380;75;2922381;-67
2024/01/17 05:15:02;;;;;;;9.05;6.95;;;;;;;-4.57;100.00;96595.47;1224164;75;2920435;-64
2024/01/17 05:17:34;;;;;;;8.50;6.70;;;;;;;-4.36;100.00;96591.72;1223402;75;2946116;-63
2024/01/17 05:20:09;;;;;;;6.95;5.55;;;;;;;-4.27;100.00;96591.25;1223745;75;2928403;-65
2024/01/17 05:22:42;;;;;;;6.25;4.70;;;;;;;-4.28;100.00;96593.16;1224356;75;2924205;-66
2024/01/17 05:25:15;;;;;;;7.25;5.25;;;;;;;-4.23;100.00;96581.25;1223859;75;2927739;-65
2024/01/17 05:27:51;;;;;;;6.85;4.75;;;;;;;-4.18;100.00;96586.16;1224716;75;2926622;-64
2024/01/17 05:30:28;;;;;;;5.55;4.25;;;;;;;-4.23;100.00;96575.91;1223373;75;2928722;-63
2024/01/17 05:33:01;;;;;;;11.30;7.75;;;;;;;-4.18;100.00;96582.72;1223425;75;2922333;-65
2024/01/17 05:35:34;;;;;;;10.15;7.10;;;;;;;-4.16;100.00;96580.38;1223442;75;2920609;-66
2024/01/17 05:38:07;;;;;;;9.85;7.25;;;;;;;-4.26;100.00;96574.03;1224146;75;2928249;-63
2024/01/17 05:40:40;;;;;;;15.05;10.45;;;;;;;-4.39;100.00;96575.75;1224102;75;2921335;-64
2024/01/17 05:43:13;;;;;;;14.05;9.85;;;;;;;-4.36;100.00;96580.28;1223031;75;2924100;-64
2024/01/17 05:45:48;;;;;;;13.90;10.15;;;;;;;-4.15;100.00;96576.56;1223597;75;2917529;-64
2024/01/17 05:48:23;;;;;;;13.30;9.00;;;;;;;-3.98;100.00;96580.13;1223660;75;2923524;-64
2024/01/17 05:50:56;;;;;;;15.20;11.00;;;;;;;-4.35;100.00;96587.16;1224438;75;2919354;-65
2024/01/17 05:53:29;;;;;;;20.30;13.25;;;;;;;-4.50;100.00;96591.91;1224312;75;2921535;-66
2024/01/17 05:56:02;;;;;;;18.40;13.05;;;;;;;-4.36;100.00;96593.66;1224223;75;2925212;-62
2024/01/17 05:58:34;;;;;;;17.90;12.55;;;;;;;-4.38;100.00;96588.69;1223628;75;2923729;-66
2024/01/17 06:01:10;;;;;;;16.00;11.80;;;;;;;-4.23;100.00;96586.59;1223912;75;2926815;-64
2024/01/17 06:03:44;;;;;;;14.45;10.10;;;;;;;-4.07;100.00;96585.97;1223435;75;2922937;-66
2024/01/17 06:06:17;;;;;;;13.35;9.30;;;;;;;-4.07;100.00;96572.63;1224790;75;2920781;-65
2024/01/17 06:08:50;;;;;;;14.20;9.75;;;;;;;-4.03;100.00;96570.66;1225019;75;2922750;-65
2024/01/17 06:11:23;;;;;;;14.20;9.65;;;;;;;-4.12;100.00;96570.41;1224190;75;2927631;-65
2024/01/17 06:13:56;;;;;;;16.60;10.85;;;;;;;-4.03;100.00;96551.94;1223102;83;2925456;-64
2024/01/17 06:16:31;;;;;;;16.05;10.85;;;;;;;-3.87;100.00;96548.66;1223901;75;2925529;-66
2024/01/17 06:19:05;;;;;;;16.65;11.15;;;;;;;-4.01;100.00;96556.91;1222703;75;2938101;-64
2024/01/17 06:21:37;;;;;;;15.40;10.20;;;;;;;-4.04;100.00;96552.34;1224216;75;2921914;-64
2024/01/17 06:24:10;;;;;;;14.30;10.00;;;;;;;-4.10;100.00;96555.47;1222728;75;2927095;-66
2024/01/17 06:26:43;;;;;;;18.25;13.40;;;;;;;-4.20;100.00;96548.38;1223718;75;2919971;-67
2024/01/17 06:29:16;;;;;;;18.60;13.45;;;;;;;-4.22;100.00;96542.69;1224016;75;2928447;-65
2024/01/17 06:31:51;;;;;;;20.45;13.75;;;;;;;-4.28;100.00;96552.34;1224182;75;2920295;-64
2024/01/17 06:34:24;;;;;;;17.95;12.70;;;;;;;-4.03;100.00;96535.91;1223420;75;2926541;-64
2024/01/17 06:36:57;;;;;;;17.05;11.60;;;;;;;-3.84;100.00;96531.03;1223743;75;2935307;-65
2024/01/17 06:39:30;;;;;;;15.75;10.60;;;;;;;-3.81;100.00;96530.97;1224221;75;2918286;-64
2024/01/17 06:42:04;;;;;;;13.40;9.20;;;;;;;-3.88;100.00;96526.50;1223682;75;2932201;-64
2024/01/17 06:44:36;;;;;;;19.90;13.65;;;;;;;-3.98;100.00;96530.09;1224061;75;2920385;-65
2024/01/17 06:47:12;;;;;;;14.40;10.90;;;;;;;-3.82;100.00;96542.84;1223177;75;2963011;-66
2024/01/17 06:49:45;;;;;;;19.75;14.35;;;;;;;-4.05;100.00;96546.25;1222541;75;2925753;-61
2024/01/17 06:52:18;;;;;;;19.40;13.15;;;;;;;-3.77;100.00;96549.63;1223662;75;2927974;-63
2024/01/17 06:54:51;;;;;;;19.60;14.30;;;;;;;-4.10;100.00;96555.47;1224075;75;2914879;-64
2024/01/17 06:57:23;;;;;;;25.20;16.55;;;;;;;-4.14;100.00;96565.47;1223962;75;2921097;-64
2024/01/17 06:59:56;;;;;;;20.65;14.95;;;;;;;-3.95;100.00;96541.88;1223549;75;2922418;-65
2024/01/17 07:02:32;;;;;;;18.10;12.70;;;;;;;-3.82;100.00;96524.13;1224153;75;2918449;-66
2024/01/17 07:05:05;;;;;;;15.70;11.75;;;;;;;-3.71;100.00;96511.31;1224388;75;2921827;-64
2024/01/17 07:07:37;;;;;;;16.95;11.25;;;;;;;-3.59;100.00;96514.56;1224445;75;2922451;-66
2024/01/17 07:10:11;;;;;;;13.05;9.00;;;;;;;-3.56;100.00;96508.38;1224640;75;2920783;-66
2024/01/17 07:12:44;;;;;;;11.55;8.10;;;;;;;-3.54;100.00;96511.41;1223571;75;2917752;-64
2024/01/17 07:15:17;;;;;;;11.00;8.55;;;;;;;-3.45;100.00;96514.28;1224241;75;2928655;-63
2024/01/17 07:17:52;;;;;;;14.85;10.20;;;;;;;-3.62;100.00;96505.44;1224307;75;2927110;-64
2024/01/17 07:20:25;;;;;;;18.90;12.60;;;;;;;-3.72;100.00;96501.78;1223131;75;2928710;-64
2024/01/17 07:22:58;;;;;;;18.75;13.70;;;;;;;-3.52;100.00;96485.75;1224319;75;2922821;-66
2024/01/17 07:25:31;;;;;;;21.00;14.10;;;;;;;-3.59;100.00;96471.75;1224198;75;2920699;-64
2024/01/17 07:28:04;;;;;;;18.45;13.05;;;;;;;-3.39;100.00;96472.53;1223676;75;2920957;-65
2024/01/17 07:30:37;;;;;;;21.00;14.05;;;;;;;-3.55;100.00;96457.16;1220395;83;2924982;-65
2024/01/17 07:33:12;;;;;;;18.25;13.20;;;;;;;-3.35;100.00;96473.19;1196684;75;4191003;-66
2024/01/17 07:35:45;;;;;;;24.10;16.60;;;;;;;-3.39;100.00;96466.41;1222598;75;2921412;-67
2024/01/17 07:38:18;;;;;;;22.75;16.60;;;;;;;-3.41;100.00;96468.75;1223855;75;2927942;-64
2024/01/17 07:40:51;;;;;;;20.35;14.50;;;;;;;-3.30;100.00;96477.31;1222461;75;2921005;-64
2024/01/17 07:43:24;;;;;;;17.35;12.40;;;;;;;-3.21;100.00;96474.84;1223850;75;2926465;-64
2024/01/17 07:45:57;;;;;;;18.30;12.25;;;;;;;-3.35;100.00;96472.44;1222984;75;2930341;-66
2024/01/17 07:48:33;;;;;;;14.35;10.75;;;;;;;-3.21;100.00;96472.91;1224500;75;2920789;-64
2024/01/17 07:51:06;;;;;;;12.05;9.45;;;;;;;-2.97;100.00;96467.47;1222224;75;2922494;-64
2024/01/17 07:53:39;;;;;;;15.60;11.40;;;;;;;-3.14;100.00;96468.59;1184575;75;5803512;-65
2024/01/17 07:56:13;;;;;;;20.65;14.50;;;;;;;-3.46;100.00;96462.72;1221297;75;2920219;-65
2024/01/17 07:58:46;;;;;;;21.45;15.65;;;;;;;-3.23;100.00;96458.44;1224170;75;2926920;-63
2024/01/17 08:01:18;;;;;;;23.10;15.80;;;;;;;-3.31;100.00;96459.75;1215072;75;3091306;-65
2024/01/17 08:03:54;;;;;;;20.15;14.50;;;;;;;-3.23;100.00;96461.88;1225504;75;2924285;-64
2024/01/17 08:06:28;;;;;;;20.95;15.05;;;;;;;-3.22;100.00;96451.94;1223000;75;2922635;-63
2024/01/17 08:09:02;;;;;;;26.15;16.40;;;;;;;-3.40;100.00;96457.63;1225534;75;2915482;-64
2024/01/17 08:11:35;;;;;;;22.65;16.00;;;;;;;-3.22;100.00;96476.03;1222471;75;2921593;-65
2024/01/17 08:14:07;;;;;;;30.50;17.05;;;;;;;-3.39;100.00;96464.50;1224543;75;2919426;-61
2024/01/17 08:16:40;;;;;;;27.75;18.55;;;;;;;-3.34;100.00;96463.25;1222568;75;2928462;-63
2024/01/17 08:19:16;;;;;;;29.80;19.05;;;;;;;-3.27;100.00;96458.53;1223065;75;2928893;-66
2024/01/17 08:21:51;;;;;;;27.15;19.05;;;;;;;-3.50;100.00;96459.34;1222445;75;2915489;-65
2024/01/17 08:24:24;;;;;;;26.25;17.95;;;;;;;-3.43;100.00;96471.84;1217682;75;2923675;-63
2024/01/17 08:26:57;;;;;;;33.80;20.55;;;;;;;-3.62;100.00;96459.22;1219872;75;2927129;-67
2024/01/17 08:29:29;;;;;;;24.90;17.90;;;;;;;-3.61;100.00;96452.69;1224614;75;2922909;-67
2024/01/17 08:32:02;;;;;;;25.70;17.30;;;;;;;-3.36;100.00;96423.53;1223466;75;2921373;-64
2024/01/17 08:34:38;;;;;;;25.60;15.65;;;;;;;-3.22;100.00;96427.84;1223906;75;2919616;-66
2024/01/17 08:37:10;;;;;;;20.85;15.10;;;;;;;-3.35;100.00;96445.69;1223532;75;2929939;-63
2024/01/17 08:39:44;;;;;;;21.65;14.75;;;;;;;-3.13;100.00;96444.06;1222999;75;2932615;-64
2024/01/17 08:42:17;;;;;;;21.90;15.15;;;;;;;-3.17;100.00;96453.38;1221807;75;2941195;-65
2024/01/17 08:44:50;;;;;;;28.60;19.30;;;;;;;-3.17;100.00;96451.44;1224470;75;2920313;-64
2024/01/17 08:47:23;;;;;;;26.40;16.55;;;;;;;-3.14;100.00;96444.50;1221583;75;2938729;-65
2024/01/17 08:50:00;;;;;;;20.00;13.10;;;;;;;-2.68;100.00;96443.50;1223920;75;2928900;-66
2024/01/17 08:52:33;;;;;;;18.80;13.65;;;;;;;-2.63;100.00;96451.03;1222370;75;2936420;-65
2024/01/17 08:55:08;;;;;;;17.60;12.70;;;;;;;-2.94;100.00;96445.22;1224236;75;2918010;-66
2024/01/17 08:57:41;;;;;;;24.00;14.90;;;;;;;-2.58;100.00;96447.09;1222765;75;2925756;-64
2024/01/17 09:00:17;;;;;;;14.95;11.40;;;;;;;-2.33;100.00;96429.69;1222697;75;2931788;-65
2024/01/17 09:02:49;;;;;;;25.45;17.25;;;;;;;-2.86;100.00;96419.81;1222817;75;2924392;-65
2024/01/17 09:05:27;;;;;;;27.75;17.30;;;;;;;-2.76;100.00;96418.06;1224208;75;2924972;-63
2024/01/17 09:08:01;;;;;;;28.10;19.00;;;;;;;-2.72;100.00;96421.38;1223838;75;2936848;-68
2024/01/17 09:10:34;;;;;;;20.95;15.25;;;;;;;-2.11;100.00;96435.28;1222777;75;2964240;-66
2024/01/17 09:13:07;;;;;;;17.35;13.65;;;;;;;-1.97;100.00;96426.91;1221554;75;2957351;-63
2024/01/17 09:15:39;;;;;;;15.95;11.70;;;;;;;-1.81;100.00;96420.72;1224205;75;2924849;-65
2024/01/17 09:18:12;;;;;;;19.45;13.70;;;;;;;-1.86;100.00;96413.19;1222395;75;2924966;-65
2024/01/17 09:20:48;;;;;;;29.95;19.10;;;;;;;-2.49;100.00;96382.22;1223704;75;2919619;-65
2024/01/17 09:23:24;;;;;;;24.95;17.25;;;;;;;-2.20;100.00;96384.94;1223116;75;2926859;-66
2024/01/17 09:25:56;;;;;;;21.75;15.15;;;;;;;-1.87;100.00;96390.25;1224565;75;2920771;-65
2024/01/17 09:28:29;;;;;;;20.40;15.15;;;;;;;-1.87;100.00;96380.25;1223495;75;2919516;-66
2024/01/17 09:31:02;;;;;;;21.10;15.60;;;;;;;-1.99;100.00;96381.72;1223966;75;2921986;-64
2024/01/17 09:33:38;;;;;;;20.40;14.15;;;;;;;-1.76;100.00;96369.97;1222787;75;2918324;-64
2024/01/17 09:36:14;;;;;;;23.45;13.85;;;;;;;-1.94;100.00;96372.41;1224729;75;2927224;-65
2024/01/17 09:38:47;;;;;;;24.80;15.30;;;;;;;-1.65;100.00;96367.03;1222585;75;2924235;-66
2024/01/17 09:41:20;;;;;;;25.75;15.90;;;;;;;-1.74;100.00;96361.53;1223631;75;2922952;-65
2024/01/17 09:43:53;;;;;;;23.60;15.10;;;;;;;-1.66;100.00;96354.78;1223444;75;2928887;-65
2024/01/17 09:46:27;;;;;;;20.65;15.25;;;;;;;-1.66;100.00;96360.16;1169668;75;7206839;-66
2024/01/17 09:49:00;;;;;;;17.45;12.65;;;;;;;-1.20;100.00;96351.94;1224575;75;2941418;-68
2024/01/17 09:51:36;;;;;;;25.50;14.75;;;;;;;-1.84;100.00;96346.47;1222513;75;2918229;-65
2024/01/17 09:54:10;;;;;;;22.95;15.65;;;;;;;-1.94;100.00;96340.22;1225299;75;2920529;-66
2024/01/17 09:56:44;;;;;;;23.10;15.00;;;;;;;-1.72;100.00;96326.97;1220963;75;2921364;-66
2024/01/17 09:59:21;;;;;;;19.90;12.95;;;;;;;-1.48;100.00;96316.69;1222902;75;2922088;-67
2024/01/17 10:01:54;;;;;;;17.75;12.40;;;;;;;-1.36;100.00;96315.97;1220554;75;2929781;-63
2024/01/17 10:04:27;;;;;;;19.00;13.30;;;;;;;-1.33;100.00;96290.19;1223763;75;2919363;-67
2024/01/17 10:07:03;;;;;;;16.75;11.60;;;;;;;-1.36;100.00;96275.69;1223552;75;2916770;-64
2024/01/17 10:09:36;;;;;;;19.55;12.75;;;;;;;-1.03;99.18;96267.41;1221879;75;2919680;-67
2024/01/17 10:12:10;;;;;;;14.05;9.95;;;;;;;-0.91;94.50;96253.19;1222265;75;2923432;-63
2024/01/17 10:14:46;;;;;;;19.40;12.55;;;;;;;-1.31;97.63;96256.34;1223516;75;2923637;-66
2024/01/17 10:17:19;;;;;;;19.65;14.10;;;;;;;-1.16;100.00;96247.88;1222633;75;2932899;-67
2024/01/17 10:19:51;;;;;;;21.15;13.05;;;;;;;-1.10;98.49;96236.16;1223427;75;2921731;-65
2024/01/17 10:22:28;;;;;;;19.35;12.80;;;;;;;-0.99;99.17;96232.34;1221286;75;2919257;-65
2024/01/17 10:25:02;;;;;;;18.30;12.10;;;;;;;-0.81;98.69;96237.16;1224348;75;2920732;-64
2024/01/17 10:27:36;;;;;;;19.95;13.60;;;;;;;-1.03;94.99;96224.44;1222218;75;2928316;-65
2024/01/17 10:30:14;;;;;;;19.30;13.10;;;;;;;-0.86;95.27;96227.72;1224403;75;2922331;-66
2024/01/17 10:32:47;;;;;;;17.70;12.45;;;;;;;-0.58;92.11;96223.31;1222899;75;2921847;-62
2024/01/17 10:35:23;;;;;;;19.60;13.60;;;;;;;-0.73;94.04;96222.28;1223904;75;2921426;-64
2024/01/17 10:37:59;;;;;;;18.40;12.80;;;;;;;-0.25;92.83;96210.25;1222839;75;2921093;-62
2024/01/17 10:40:32;;;;;;;19.60;13.80;;;;;;;-0.60;92.05;96203.44;1223966;75;2922861;-65
2024/01/17 10:43:10;;;;;;;20.80;13.60;;;;;;;-0.67;91.79;96199.06;1223333;75;2922479;-66
2024/01/17 10:45:44;;;;;;;19.80;13.20;;;;;;;-0.18;91.58;96187.72;1223461;75;2928260;-63
2024/01/17 10:48:17;;;;;;;21.80;13.50;;;;;;;-0.30;89.87;96202.00;1221209;75;2928154;-67
2024/01/17 10:50:51;;;;;;;19.40;12.85;;;;;;;0.16;88.88;96197.59;1222083;75;2924151;-65
2024/01/17 10:53:27;;;;;;;24.00;15.20;;;;;;;0.26;87.31;96190.31;1222330;75;2925241;-64
2024/01/17 10:56:06;;;;;;;25.20;14.45;;;;;;;0.58;82.79;96166.81;1223898;75;2921438;-65
2024/01/17 10:58:39;;;;;;;25.70;13.65;;;;;;;0.89;80.98;96153.25;1222573;75;2923415;-66
2024/01/17 11:01:17;;;;;;;26.35;16.30;;;;;;;0.82;79.96;96154.28;1222396;75;2926477;-65
2024/01/17 11:03:52;;;;;;;27.00;15.80;;;;;;;0.75;80.90;96140.38;1222584;75;2920801;-62
2024/01/17 11:06:27;;;;;;;20.80;13.95;;;;;;;1.11;76.66;96136.94;1223636;75;2923876;-63
2024/01/17 11:09:04;;;;;;;20.85;12.30;;;;;;;1.69;76.43;96125.16;1222180;75;2919939;-64
2024/01/17 11:11:38;;;;;;;16.95;11.05;;;;;;;2.00;75.17;96120.72;1224649;75;2931761;-65
2024/01/17 11:14:12;;;;;;;16.70;9.80;;;;;;;2.79;73.39;96125.84;1222279;75;2941971;-66
2024/01/17 11:16:48;;;;;;;17.55;11.65;;;;;;;2.87;72.16;96110.78;1225179;75;2921453;-64
2024/01/17 11:19:22;;;;;;;15.15;10.25;;;;;;;3.13;69.51;96097.50;1222762;75;2920036;-66
2024/01/17 11:21:55;;;;;;;18.55;11.95;;;;;;;2.84;69.91;96098.19;1223931;75;2923860;-65
2024/01/17 11:24:42;;;;;;;19.15;11.60;;;;;;;3.67;67.99;96100.13;1223123;75;2920676;-65
2024/01/17 11:27:25;;;;;;;15.10;10.80;;;;;;;4.12;67.34;96094.69;1223159;75;2921474;-63